createdAt,value
2018-10-19T00:00:04.020Z,14.17
2018-10-19T00:00:30.179Z,14.15
2018-10-19T00:00:56.315Z,14.05
2018-10-19T00:01:22.451Z,14.1
2018-10-19T00:01:48.583Z,14
2018-10-19T00:02:14.738Z,14.15
2018-10-19T00:02:40.875Z,13.99
2018-10-19T00:03:07.062Z,13.99
2018-10-19T00:03:33.159Z,14
2018-10-19T00:03:59.294Z,13.97
2018-10-19T00:04:25.446Z,14.03
2018-10-19T00:04:51.553Z,13.99
2018-10-19T00:05:17.799Z,14.14
2018-10-19T00:05:43.858Z,13.97
2018-10-19T00:06:10.040Z,13.96
2018-10-19T00:06:36.204Z,14.1
2018-10-19T00:07:02.355Z,13.97
2018-10-19T00:07:28.484Z,13.99
2018-10-19T00:07:54.615Z,14.04
2018-10-19T00:08:20.751Z,14.05
2018-10-19T00:08:46.884Z,14
2018-10-19T00:09:13.087Z,13.93
2018-10-19T00:09:39.187Z,13.97
2018-10-19T00:10:05.368Z,13.96
2018-10-19T00:10:31.503Z,13.99
2018-10-19T00:10:57.671Z,13.97
2018-10-19T00:11:23.803Z,14.03
2018-10-19T00:11:49.965Z,14
2018-10-19T00:12:16.113Z,14.14
2018-10-19T00:12:42.262Z,14.15
2018-10-19T00:13:08.416Z,14.05
2018-10-19T00:13:34.573Z,14
2018-10-19T00:14:00.731Z,14.11
2018-10-19T00:14:26.856Z,14.11
2018-10-19T00:14:52.996Z,14.12
2018-10-19T00:15:19.154Z,14.11
2018-10-19T00:15:45.292Z,14.14
2018-10-19T00:16:11.437Z,14.17
2018-10-19T00:16:37.580Z,14.12
2018-10-19T00:17:03.768Z,14.17
2018-10-19T00:17:29.869Z,14.12
2018-10-19T00:17:56.012Z,14.11
2018-10-19T00:18:22.145Z,14.17
2018-10-19T00:18:48.283Z,14.1
2018-10-19T00:19:14.418Z,14.15
2018-10-19T00:19:40.603Z,14.17
2018-10-19T00:20:06.733Z,14.17
2018-10-19T00:20:32.869Z,14.12
2018-10-19T00:20:59.052Z,14.07
2018-10-19T00:21:25.135Z,14.08
2018-10-19T00:21:51.289Z,14.15
2018-10-19T00:22:17.444Z,14.14
2018-10-19T00:22:43.579Z,14.15
2018-10-19T00:23:09.850Z,14.08
2018-10-19T00:23:35.889Z,14.15
2018-10-19T00:24:02.018Z,14.18
2018-10-19T00:24:28.180Z,14.17
2018-10-19T00:24:54.348Z,14.14
2018-10-19T00:25:20.486Z,14.14
2018-10-19T00:25:46.622Z,14.17
2018-10-19T00:26:12.807Z,14.17
2018-10-19T00:26:38.941Z,14.18
2018-10-19T00:27:05.140Z,14.1
2018-10-19T00:27:31.209Z,14.12
2018-10-19T00:27:57.343Z,14.12
2018-10-19T00:28:23.494Z,14.15
2018-10-19T00:28:49.631Z,14.12
2018-10-19T00:29:15.866Z,14.17
2018-10-19T00:29:41.924Z,14.12
2018-10-19T00:30:08.063Z,14.07
2018-10-19T00:30:34.195Z,14.17
2018-10-19T00:31:00.327Z,14.15
2018-10-19T00:31:26.463Z,14.1
2018-10-19T00:31:52.599Z,14.22
2018-10-19T00:32:18.728Z,14.17
2018-10-19T00:32:44.890Z,14.2
2018-10-19T00:33:11.032Z,14.14
2018-10-19T00:33:37.167Z,14.1
2018-10-19T00:34:03.302Z,14.11
2018-10-19T00:34:29.439Z,14.22
2018-10-19T00:34:55.603Z,14.22
2018-10-19T00:35:21.727Z,14.12
2018-10-19T00:35:47.863Z,14.1
2018-10-19T00:36:14.019Z,14.07
2018-10-19T00:36:40.155Z,13.97
2018-10-19T00:37:06.317Z,14.08
2018-10-19T00:37:32.456Z,14.07
2018-10-19T00:37:58.592Z,14.14
2018-10-19T00:38:24.725Z,14.1
2018-10-19T00:38:50.852Z,14.14
2018-10-19T00:39:17.155Z,14.11
2018-10-19T00:39:43.143Z,14.15
2018-10-19T00:40:09.278Z,14.07
2018-10-19T00:40:35.409Z,14.14
2018-10-19T00:41:01.607Z,14.1
2018-10-19T00:41:27.755Z,14.14
2018-10-19T00:41:53.903Z,14.12
2018-10-19T00:42:20.044Z,14.17
2018-10-19T00:42:46.192Z,14.15
2018-10-19T00:43:12.368Z,14.17
2018-10-19T00:43:38.511Z,14.14
2018-10-19T00:44:04.664Z,14.17
2018-10-19T00:44:30.798Z,14.12
2018-10-19T00:44:56.950Z,14.14
2018-10-19T00:45:23.067Z,14.14
2018-10-19T00:45:49.207Z,14.14
2018-10-19T00:46:15.367Z,14.07
2018-10-19T00:46:41.524Z,14.05
2018-10-19T00:47:07.744Z,14.07
2018-10-19T00:47:33.844Z,14.08
2018-10-19T00:47:59.978Z,14.15
2018-10-19T00:48:26.106Z,14.08
2018-10-19T00:48:52.236Z,14.08
2018-10-19T00:49:18.373Z,14.1
2018-10-19T00:49:44.527Z,14.11
2018-10-19T00:50:10.659Z,14.11
2018-10-19T00:50:36.784Z,14.15
2018-10-19T00:51:03.005Z,14.1
2018-10-19T00:51:29.047Z,14
2018-10-19T00:51:55.192Z,14
2018-10-19T00:52:21.329Z,14.03
2018-10-19T00:52:47.460Z,13.99
2018-10-19T00:53:13.732Z,13.99
2018-10-19T00:53:39.768Z,13.99
2018-10-19T00:54:05.905Z,14.05
2018-10-19T00:54:32.029Z,14.12
2018-10-19T00:54:58.179Z,14.11
2018-10-19T00:55:24.314Z,14.1
2018-10-19T00:55:50.445Z,14.04
2018-10-19T00:56:16.600Z,13.99
2018-10-19T00:56:42.740Z,13.97
2018-10-19T00:57:08.982Z,14.04
2018-10-19T00:57:35.047Z,13.89
2018-10-19T00:58:01.183Z,13.93
2018-10-19T00:58:27.319Z,13.93
2018-10-19T00:58:53.532Z,13.87
2018-10-19T00:59:19.625Z,13.97
2018-10-19T00:59:45.754Z,13.96
2018-10-19T01:00:11.913Z,13.95
2018-10-19T01:00:38.051Z,13.99
2018-10-19T01:01:04.180Z,13.96
2018-10-19T01:01:30.340Z,13.93
2018-10-19T01:01:56.492Z,13.95
2018-10-19T01:02:22.620Z,13.95
2018-10-19T01:02:48.749Z,14.05
2018-10-19T01:03:15.006Z,13.99
2018-10-19T01:03:41.045Z,13.99
2018-10-19T01:04:07.181Z,13.96
2018-10-19T01:04:33.323Z,13.97
2018-10-19T01:04:59.554Z,13.92
2018-10-19T01:05:25.648Z,13.96
2018-10-19T01:05:51.784Z,13.97
2018-10-19T01:06:17.914Z,13.96
2018-10-19T01:06:44.048Z,13.96
2018-10-19T01:07:10.203Z,13.87
2018-10-19T01:07:36.370Z,13.86
2018-10-19T01:08:02.525Z,13.85
2018-10-19T01:08:28.675Z,13.86
2018-10-19T01:08:54.834Z,13.86
2018-10-19T01:09:20.967Z,13.78
2018-10-19T01:09:47.105Z,13.78
2018-10-19T01:10:13.266Z,13.83
2018-10-19T01:10:39.405Z,13.86
2018-10-19T01:11:05.615Z,13.86
2018-10-19T01:11:31.697Z,13.87
2018-10-19T01:11:57.828Z,13.81
2018-10-19T01:12:23.961Z,13.86
2018-10-19T01:12:50.115Z,13.79
2018-10-19T01:13:16.251Z,13.79
2018-10-19T01:13:42.376Z,13.9
2018-10-19T01:14:08.517Z,13.81
2018-10-19T01:14:34.649Z,13.86
2018-10-19T01:15:00.800Z,13.83
2018-10-19T01:15:26.972Z,13.77
2018-10-19T01:15:53.113Z,13.74
2018-10-19T01:16:19.250Z,13.79
2018-10-19T01:16:45.385Z,13.92
2018-10-19T01:17:11.609Z,13.85
2018-10-19T01:17:37.666Z,13.79
2018-10-19T01:18:03.793Z,13.86
2018-10-19T01:18:29.923Z,13.79
2018-10-19T01:18:56.055Z,13.9
2018-10-19T01:19:22.234Z,13.87
2018-10-19T01:19:48.363Z,13.83
2018-10-19T01:20:14.531Z,13.89
2018-10-19T01:20:40.665Z,13.86
2018-10-19T01:21:06.918Z,13.87
2018-10-19T01:21:33.001Z,13.9
2018-10-19T01:21:59.133Z,13.96
2018-10-19T01:22:25.290Z,13.87
2018-10-19T01:22:51.425Z,13.83
2018-10-19T01:23:17.599Z,13.87
2018-10-19T01:23:43.719Z,13.87
2018-10-19T01:24:09.855Z,13.96
2018-10-19T01:24:35.989Z,13.9
2018-10-19T01:25:02.124Z,13.89
2018-10-19T01:25:28.269Z,13.86
2018-10-19T01:25:54.425Z,13.83
2018-10-19T01:26:20.611Z,13.87
2018-10-19T01:26:46.690Z,13.83
2018-10-19T01:27:12.926Z,13.87
2018-10-19T01:27:38.985Z,13.89
2018-10-19T01:28:05.121Z,13.77
2018-10-19T01:28:31.246Z,13.87
2018-10-19T01:28:57.422Z,13.78
2018-10-19T01:29:23.596Z,13.81
2018-10-19T01:29:49.732Z,13.86
2018-10-19T01:30:15.861Z,13.75
2018-10-19T01:30:41.994Z,13.77
2018-10-19T01:31:08.145Z,13.78
2018-10-19T01:31:34.302Z,13.78
2018-10-19T01:32:00.438Z,13.72
2018-10-19T01:32:26.574Z,13.74
2018-10-19T01:32:52.716Z,13.75
2018-10-19T01:33:18.843Z,13.71
2018-10-19T01:33:44.973Z,13.77
2018-10-19T01:34:11.106Z,13.74
2018-10-19T01:34:37.239Z,13.78
2018-10-19T01:35:03.430Z,13.7
2018-10-19T01:35:29.512Z,13.74
2018-10-19T01:35:55.658Z,13.71
2018-10-19T01:36:21.791Z,13.62
2018-10-19T01:36:47.926Z,13.62
2018-10-19T01:37:14.058Z,13.67
2018-10-19T01:37:40.186Z,13.62
2018-10-19T01:38:06.342Z,13.65
2018-10-19T01:38:32.496Z,13.6
2018-10-19T01:38:58.686Z,13.6
2018-10-19T01:39:24.776Z,13.63
2018-10-19T01:39:50.912Z,13.68
2018-10-19T01:40:17.043Z,13.62
2018-10-19T01:40:43.191Z,13.62
2018-10-19T01:41:09.382Z,13.57
2018-10-19T01:41:35.458Z,13.49
2018-10-19T01:42:01.618Z,13.52
2018-10-19T01:42:27.749Z,13.62
2018-10-19T01:42:53.883Z,13.63
2018-10-19T01:43:20.012Z,13.65
2018-10-19T01:43:46.153Z,13.56
2018-10-19T01:44:12.282Z,13.52
2018-10-19T01:44:38.417Z,13.53
2018-10-19T01:45:04.564Z,13.53
2018-10-19T01:45:30.714Z,13.53
2018-10-19T01:45:56.865Z,13.52
2018-10-19T01:46:23.026Z,13.49
2018-10-19T01:46:49.148Z,13.56
2018-10-19T01:47:15.463Z,13.6
2018-10-19T01:47:41.538Z,13.46
2018-10-19T01:48:07.672Z,13.59
2018-10-19T01:48:33.801Z,13.62
2018-10-19T01:48:59.939Z,13.46
2018-10-19T01:49:26.065Z,13.53
2018-10-19T01:49:52.204Z,13.53
2018-10-19T01:50:18.359Z,13.47
2018-10-19T01:50:44.515Z,13.41
2018-10-19T01:51:10.772Z,13.5
2018-10-19T01:51:36.783Z,13.53
2018-10-19T01:52:02.913Z,13.47
2018-10-19T01:52:29.047Z,13.49
2018-10-19T01:52:55.214Z,13.5
2018-10-19T01:53:21.332Z,13.41
2018-10-19T01:53:47.466Z,13.41
2018-10-19T01:54:13.601Z,13.44
2018-10-19T01:54:39.754Z,13.42
2018-10-19T01:55:05.893Z,13.41
2018-10-19T01:55:32.024Z,13.38
2018-10-19T01:55:58.157Z,13.41
2018-10-19T01:56:24.284Z,13.41
2018-10-19T01:56:50.416Z,13.35
2018-10-19T01:57:16.621Z,13.39
2018-10-19T01:57:42.692Z,13.39
2018-10-19T01:58:08.831Z,13.41
2018-10-19T01:58:34.965Z,13.42
2018-10-19T01:59:01.139Z,13.42
2018-10-19T01:59:27.366Z,13.42
2018-10-19T01:59:53.479Z,13.42
2018-10-19T02:00:19.603Z,13.47
2018-10-19T02:00:45.766Z,13.31
2018-10-19T02:01:11.894Z,13.33
2018-10-19T02:01:38.023Z,13.28
2018-10-19T02:02:04.160Z,13.46
2018-10-19T02:02:30.293Z,13.3
2018-10-19T02:02:56.480Z,13.27
2018-10-19T02:03:22.574Z,13.23
2018-10-19T02:03:48.711Z,13.31
2018-10-19T02:04:14.840Z,13.22
2018-10-19T02:04:40.972Z,13.25
2018-10-19T02:05:07.140Z,13.23
2018-10-19T02:05:33.270Z,13.22
2018-10-19T02:05:59.430Z,13.3
2018-10-19T02:06:25.560Z,13.23
2018-10-19T02:06:51.705Z,13.33
2018-10-19T02:07:17.846Z,13.18
2018-10-19T02:07:43.975Z,13.27
2018-10-19T02:08:10.107Z,13.19
2018-10-19T02:08:36.234Z,13.22
2018-10-19T02:09:02.394Z,13.25
2018-10-19T02:09:28.519Z,13.33
2018-10-19T02:09:54.651Z,13.23
2018-10-19T02:10:20.788Z,13.27
2018-10-19T02:10:46.912Z,13.19
2018-10-19T02:11:13.181Z,13.3
2018-10-19T02:11:39.194Z,13.28
2018-10-19T02:12:05.332Z,13.2
2018-10-19T02:12:31.467Z,13.2
2018-10-19T02:12:57.621Z,13.18
2018-10-19T02:13:23.757Z,13.23
2018-10-19T02:13:49.887Z,13.22
2018-10-19T02:14:16.024Z,13.25
2018-10-19T02:14:42.162Z,13.18
2018-10-19T02:15:08.413Z,13.25
2018-10-19T02:15:34.509Z,13.31
2018-10-19T02:16:00.646Z,13.31
2018-10-19T02:16:26.782Z,13.3
2018-10-19T02:16:52.964Z,13.3
2018-10-19T02:17:19.077Z,13.3
2018-10-19T02:17:45.219Z,13.22
2018-10-19T02:18:11.345Z,13.3
2018-10-19T02:18:37.481Z,13.27
2018-10-19T02:19:03.612Z,13.25
2018-10-19T02:19:29.769Z,13.19
2018-10-19T02:19:55.903Z,13.12
2018-10-19T02:20:22.029Z,13.11
2018-10-19T02:20:48.168Z,13.09
2018-10-19T02:21:14.408Z,13.09
2018-10-19T02:21:40.478Z,13.03
2018-10-19T02:22:06.609Z,13.12
2018-10-19T02:22:32.778Z,13.08
2018-10-19T02:22:58.874Z,13.11
2018-10-19T02:23:24.998Z,13.11
2018-10-19T02:23:51.159Z,13.05
2018-10-19T02:24:17.308Z,13.04
2018-10-19T02:24:43.474Z,12.93
2018-10-19T02:25:09.619Z,13.01
2018-10-19T02:25:35.750Z,12.97
2018-10-19T02:26:01.905Z,12.91
2018-10-19T02:26:28.042Z,13.05
2018-10-19T02:26:54.196Z,13.01
2018-10-19T02:27:20.309Z,12.94
2018-10-19T02:27:46.441Z,12.97
2018-10-19T02:28:12.600Z,13.01
2018-10-19T02:28:38.746Z,12.94
2018-10-19T02:29:04.922Z,12.94
2018-10-19T02:29:31.034Z,12.87
2018-10-19T02:29:57.190Z,12.91
2018-10-19T02:30:23.323Z,13
2018-10-19T02:30:49.457Z,12.9
2018-10-19T02:31:15.589Z,12.87
2018-10-19T02:31:41.770Z,12.95
2018-10-19T02:32:07.919Z,12.93
2018-10-19T02:32:34.056Z,12.86
2018-10-19T02:33:00.211Z,12.94
2018-10-19T02:33:26.377Z,12.94
2018-10-19T02:33:52.508Z,12.97
2018-10-19T02:34:18.708Z,12.94
2018-10-19T02:34:44.841Z,12.97
2018-10-19T02:35:11.108Z,12.91
2018-10-19T02:35:37.188Z,12.94
2018-10-19T02:36:03.323Z,13.05
2018-10-19T02:36:29.507Z,13.04
2018-10-19T02:36:55.660Z,12.98
2018-10-19T02:37:21.815Z,13.03
2018-10-19T02:37:47.970Z,12.98
2018-10-19T02:38:14.121Z,12.97
2018-10-19T02:38:40.252Z,13.05
2018-10-19T02:39:06.423Z,12.97
2018-10-19T02:39:32.521Z,13.05
2018-10-19T02:39:58.677Z,13.12
2018-10-19T02:40:24.843Z,13.04
2018-10-19T02:40:50.999Z,12.98
2018-10-19T02:41:17.265Z,13.03
2018-10-19T02:41:43.332Z,13.08
2018-10-19T02:42:09.474Z,13.11
2018-10-19T02:42:35.618Z,13.04
2018-10-19T02:43:01.748Z,12.95
2018-10-19T02:43:27.902Z,12.94
2018-10-19T02:43:54.056Z,12.95
2018-10-19T02:44:20.187Z,12.94
2018-10-19T02:44:46.318Z,13
2018-10-19T02:45:12.595Z,12.97
2018-10-19T02:45:38.591Z,12.94
2018-10-19T02:46:04.728Z,12.98
2018-10-19T02:46:30.882Z,12.98
2018-10-19T02:46:57.065Z,12.97
2018-10-19T02:47:23.230Z,12.94
2018-10-19T02:47:49.386Z,12.98
2018-10-19T02:48:15.535Z,12.97
2018-10-19T02:48:41.668Z,12.94
2018-10-19T02:49:07.807Z,12.91
2018-10-19T02:49:33.929Z,12.95
2018-10-19T02:50:00.066Z,12.97
2018-10-19T02:50:26.214Z,12.97
2018-10-19T02:50:52.341Z,12.95
2018-10-19T02:51:18.690Z,12.93
2018-10-19T02:51:44.617Z,12.86
2018-10-19T02:52:10.776Z,12.93
2018-10-19T02:52:36.910Z,12.91
2018-10-19T02:53:03.131Z,12.95
2018-10-19T02:53:29.197Z,12.93
2018-10-19T02:53:55.324Z,12.97
2018-10-19T02:54:21.486Z,12.95
2018-10-19T02:54:47.664Z,12.98
2018-10-19T02:55:13.846Z,12.93
2018-10-19T02:55:40.004Z,12.98
2018-10-19T02:56:06.135Z,12.95
2018-10-19T02:56:32.275Z,13.04
2018-10-19T02:56:58.423Z,12.94
2018-10-19T02:57:24.599Z,12.91
2018-10-19T02:57:50.734Z,12.9
2018-10-19T02:58:16.885Z,12.85
2018-10-19T02:58:43.040Z,12.95
2018-10-19T02:59:09.174Z,12.78
2018-10-19T02:59:35.307Z,12.8
2018-10-19T03:00:01.435Z,12.83
2018-10-19T03:00:27.600Z,12.82
2018-10-19T03:00:53.729Z,12.87
2018-10-19T03:01:19.908Z,12.86
2018-10-19T03:01:46.034Z,12.8
2018-10-19T03:02:12.169Z,12.83
2018-10-19T03:02:38.304Z,12.8
2018-10-19T03:03:04.519Z,12.93
2018-10-19T03:03:30.627Z,12.87
2018-10-19T03:03:56.786Z,12.82
2018-10-19T03:04:22.918Z,12.79
2018-10-19T03:04:49.051Z,12.85
2018-10-19T03:05:15.259Z,12.82
2018-10-19T03:05:41.336Z,12.83
2018-10-19T03:06:07.493Z,12.83
2018-10-19T03:06:33.627Z,12.82
2018-10-19T03:06:59.809Z,12.85
2018-10-19T03:07:25.970Z,12.86
2018-10-19T03:07:52.091Z,12.82
2018-10-19T03:08:18.276Z,12.7
2018-10-19T03:08:44.407Z,12.82
2018-10-19T03:09:10.588Z,12.73
2018-10-19T03:09:36.734Z,12.7
2018-10-19T03:10:02.870Z,12.7
2018-10-19T03:10:29.016Z,12.72
2018-10-19T03:10:55.178Z,12.7
2018-10-19T03:11:21.352Z,12.62
2018-10-19T03:11:47.431Z,12.67
2018-10-19T03:12:13.585Z,12.68
2018-10-19T03:12:39.726Z,12.62
2018-10-19T03:13:05.855Z,12.75
2018-10-19T03:13:31.984Z,12.58
2018-10-19T03:13:58.139Z,12.6
2018-10-19T03:14:24.266Z,12.68
2018-10-19T03:14:50.430Z,12.67
2018-10-19T03:15:16.676Z,12.78
2018-10-19T03:15:42.711Z,12.73
2018-10-19T03:16:08.845Z,12.68
2018-10-19T03:16:35.004Z,12.64
2018-10-19T03:17:01.218Z,12.75
2018-10-19T03:17:27.314Z,12.75
2018-10-19T03:17:53.450Z,12.62
2018-10-19T03:18:19.599Z,12.75
2018-10-19T03:18:45.760Z,12.72
2018-10-19T03:19:11.915Z,12.68
2018-10-19T03:19:38.045Z,12.62
2018-10-19T03:20:04.198Z,12.72
2018-10-19T03:20:30.343Z,12.7
2018-10-19T03:20:56.542Z,12.72
2018-10-19T03:21:22.648Z,12.68
2018-10-19T03:21:48.782Z,12.65
2018-10-19T03:22:14.917Z,12.54
2018-10-19T03:22:41.064Z,12.61
2018-10-19T03:23:07.255Z,12.64
2018-10-19T03:23:33.332Z,12.64
2018-10-19T03:23:59.480Z,12.62
2018-10-19T03:24:25.610Z,12.7
2018-10-19T03:24:51.761Z,12.67
2018-10-19T03:25:17.920Z,12.64
2018-10-19T03:25:44.068Z,12.65
2018-10-19T03:26:10.224Z,12.6
2018-10-19T03:26:36.375Z,12.61
2018-10-19T03:27:02.548Z,12.62
2018-10-19T03:27:28.688Z,12.61
2018-10-19T03:27:54.808Z,12.68
2018-10-19T03:28:20.967Z,12.54
2018-10-19T03:28:47.117Z,12.58
2018-10-19T03:29:13.314Z,12.55
2018-10-19T03:29:39.421Z,12.46
2018-10-19T03:30:05.559Z,12.55
2018-10-19T03:30:31.709Z,12.58
2018-10-19T03:30:57.920Z,12.67
2018-10-19T03:31:24.028Z,12.55
2018-10-19T03:31:50.266Z,12.54
2018-10-19T03:32:16.444Z,12.53
2018-10-19T03:32:42.608Z,12.54
2018-10-19T03:33:08.845Z,12.5
2018-10-19T03:33:34.935Z,12.49
2018-10-19T03:34:01.072Z,12.47
2018-10-19T03:34:27.233Z,12.46
2018-10-19T03:34:53.434Z,12.46
2018-10-19T03:35:19.572Z,12.49
2018-10-19T03:35:45.701Z,12.5
2018-10-19T03:36:11.860Z,12.49
2018-10-19T03:36:37.984Z,12.42
2018-10-19T03:37:04.114Z,12.49
2018-10-19T03:37:30.252Z,12.47
2018-10-19T03:37:56.405Z,12.45
2018-10-19T03:38:22.561Z,12.49
2018-10-19T03:38:48.693Z,12.45
2018-10-19T03:39:14.943Z,12.46
2018-10-19T03:39:40.982Z,12.5
2018-10-19T03:40:07.156Z,12.47
2018-10-19T03:40:33.288Z,12.5
2018-10-19T03:40:59.485Z,12.36
2018-10-19T03:41:25.612Z,12.45
2018-10-19T03:41:51.744Z,12.39
2018-10-19T03:42:17.878Z,12.43
2018-10-19T03:42:44.014Z,12.36
2018-10-19T03:43:10.180Z,12.35
2018-10-19T03:43:36.321Z,12.4
2018-10-19T03:44:02.505Z,12.39
2018-10-19T03:44:28.629Z,12.42
2018-10-19T03:44:54.770Z,12.28
2018-10-19T03:45:20.910Z,12.31
2018-10-19T03:45:47.047Z,12.35
2018-10-19T03:46:13.177Z,12.32
2018-10-19T03:46:39.335Z,12.39
2018-10-19T03:47:05.512Z,12.25
2018-10-19T03:47:31.633Z,12.28
2018-10-19T03:47:57.770Z,12.29
2018-10-19T03:48:23.908Z,12.27
2018-10-19T03:48:50.037Z,12.24
2018-10-19T03:49:16.297Z,12.29
2018-10-19T03:49:42.308Z,12.27
2018-10-19T03:50:08.478Z,12.22
2018-10-19T03:50:34.603Z,12.27
2018-10-19T03:51:00.826Z,12.27
2018-10-19T03:51:26.976Z,12.21
2018-10-19T03:51:53.106Z,12.13
2018-10-19T03:52:19.266Z,12.25
2018-10-19T03:52:45.400Z,12.24
2018-10-19T03:53:11.684Z,12.21
2018-10-19T03:53:37.664Z,12.2
2018-10-19T03:54:03.797Z,12.15
2018-10-19T03:54:29.955Z,12.24
2018-10-19T03:54:56.093Z,12.21
2018-10-19T03:55:22.247Z,12.25
2018-10-19T03:55:48.403Z,12.22
2018-10-19T03:56:14.531Z,12.22
2018-10-19T03:56:40.692Z,12.25
2018-10-19T03:57:06.926Z,12.21
2018-10-19T03:57:32.994Z,12.22
2018-10-19T03:57:59.133Z,12.2
2018-10-19T03:58:25.274Z,12.24
2018-10-19T03:58:51.408Z,12.22
2018-10-19T03:59:17.710Z,12.22
2018-10-19T03:59:43.692Z,12.21
2018-10-19T04:00:09.868Z,12.25
2018-10-19T04:00:36.029Z,12.25
2018-10-19T04:01:02.156Z,12.24
2018-10-19T04:01:28.314Z,12.27
2018-10-19T04:01:54.521Z,12.21
2018-10-19T04:02:20.679Z,12.2
2018-10-19T04:02:46.738Z,12.24
2018-10-19T04:03:12.963Z,12.24
2018-10-19T04:03:39.156Z,12.17
2018-10-19T04:04:05.283Z,12.15
2018-10-19T04:04:31.397Z,12.2
2018-10-19T04:04:57.595Z,12.1
2018-10-19T04:05:23.713Z,12.1
2018-10-19T04:05:49.850Z,12.12
2018-10-19T04:06:16.016Z,12.12
2018-10-19T04:06:42.173Z,12.13
2018-10-19T04:07:08.323Z,12.02
2018-10-19T04:07:34.453Z,12.04
2018-10-19T04:08:00.615Z,12.09
2018-10-19T04:08:26.775Z,11.97
2018-10-19T04:08:52.933Z,11.99
2018-10-19T04:09:19.120Z,11.95
2018-10-19T04:09:45.231Z,12.09
2018-10-19T04:10:11.389Z,11.95
2018-10-19T04:10:37.524Z,11.99
2018-10-19T04:11:03.704Z,12.09
2018-10-19T04:11:29.831Z,12.04
2018-10-19T04:11:55.959Z,12.03
2018-10-19T04:12:22.119Z,12.07
2018-10-19T04:12:48.282Z,12.04
2018-10-19T04:13:14.409Z,12.1
2018-10-19T04:13:40.617Z,12.06
2018-10-19T04:14:06.699Z,12.06
2018-10-19T04:14:32.828Z,12.07
2018-10-19T04:14:58.965Z,12.13
2018-10-19T04:15:25.089Z,12.1
2018-10-19T04:15:51.222Z,12.07
2018-10-19T04:16:17.366Z,12.06
2018-10-19T04:16:43.491Z,12.15
2018-10-19T04:17:09.711Z,12.12
2018-10-19T04:17:35.780Z,12.12
2018-10-19T04:18:01.910Z,12.09
2018-10-19T04:18:28.040Z,12.09
2018-10-19T04:18:54.172Z,12.1
2018-10-19T04:19:20.306Z,12.12
2018-10-19T04:19:46.465Z,12.04
2018-10-19T04:20:12.622Z,12.09
2018-10-19T04:20:38.749Z,12
2018-10-19T04:21:04.987Z,11.97
2018-10-19T04:21:31.038Z,12.09
2018-10-19T04:21:57.206Z,11.91
2018-10-19T04:22:23.338Z,11.97
2018-10-19T04:22:49.470Z,12.1
2018-10-19T04:23:15.676Z,11.97
2018-10-19T04:23:41.761Z,11.94
2018-10-19T04:24:07.917Z,11.95
2018-10-19T04:24:34.056Z,12.04
2018-10-19T04:25:00.188Z,12.1
2018-10-19T04:25:26.319Z,11.95
2018-10-19T04:25:52.469Z,12
2018-10-19T04:26:18.604Z,12
2018-10-19T04:26:44.730Z,12
2018-10-19T04:27:10.939Z,12.03
2018-10-19T04:27:37.116Z,11.95
2018-10-19T04:28:03.161Z,11.9
2018-10-19T04:28:29.320Z,11.95
2018-10-19T04:28:55.478Z,11.95
2018-10-19T04:29:21.654Z,11.9
2018-10-19T04:29:47.780Z,11.94
2018-10-19T04:30:13.945Z,11.91
2018-10-19T04:30:40.073Z,11.91
2018-10-19T04:31:06.283Z,11.91
2018-10-19T04:31:32.423Z,11.95
2018-10-19T04:31:58.543Z,11.94
2018-10-19T04:32:24.681Z,12
2018-10-19T04:32:50.811Z,11.94
2018-10-19T04:33:17.105Z,11.9
2018-10-19T04:33:43.140Z,11.94
2018-10-19T04:34:09.271Z,11.91
2018-10-19T04:34:35.398Z,11.87
2018-10-19T04:35:01.607Z,11.87
2018-10-19T04:35:27.723Z,11.9
2018-10-19T04:35:53.853Z,11.9
2018-10-19T04:36:20.003Z,11.9
2018-10-19T04:36:46.134Z,11.88
2018-10-19T04:37:12.276Z,11.84
2018-10-19T04:37:38.402Z,11.84
2018-10-19T04:38:04.539Z,11.81
2018-10-19T04:38:30.672Z,11.91
2018-10-19T04:38:56.858Z,11.81
2018-10-19T04:39:22.949Z,11.88
2018-10-19T04:39:49.082Z,11.86
2018-10-19T04:40:15.226Z,11.9
2018-10-19T04:40:41.405Z,11.91
2018-10-19T04:41:07.597Z,11.91
2018-10-19T04:41:33.895Z,11.9
2018-10-19T04:42:00.025Z,11.86
2018-10-19T04:42:26.095Z,11.88
2018-10-19T04:42:52.163Z,11.86
2018-10-19T04:43:18.324Z,11.88
2018-10-19T04:43:44.448Z,11.94
2018-10-19T04:44:10.581Z,11.95
2018-10-19T04:44:36.738Z,11.87
2018-10-19T04:45:02.986Z,11.87
2018-10-19T04:45:29.004Z,11.94
2018-10-19T04:45:55.156Z,11.94
2018-10-19T04:46:21.294Z,11.95
2018-10-19T04:46:47.423Z,11.94
2018-10-19T04:47:13.616Z,12
2018-10-19T04:47:39.835Z,11.94
2018-10-19T04:48:05.914Z,11.99
2018-10-19T04:48:32.054Z,12
2018-10-19T04:48:58.186Z,12.02
2018-10-19T04:49:24.366Z,11.99
2018-10-19T04:49:50.501Z,11.95
2018-10-19T04:50:16.675Z,11.94
2018-10-19T04:50:42.811Z,11.94
2018-10-19T04:51:09.052Z,11.95
2018-10-19T04:51:35.116Z,11.99
2018-10-19T04:52:01.255Z,11.99
2018-10-19T04:52:27.421Z,11.97
2018-10-19T04:52:53.583Z,12
2018-10-19T04:53:19.782Z,11.83
2018-10-19T04:53:45.982Z,11.9
2018-10-19T04:54:12.066Z,11.91
2018-10-19T04:54:38.228Z,11.88
2018-10-19T04:55:04.404Z,11.81
2018-10-19T04:55:30.531Z,11.84
2018-10-19T04:55:56.666Z,11.83
2018-10-19T04:56:22.795Z,11.94
2018-10-19T04:56:48.928Z,11.88
2018-10-19T04:57:15.121Z,11.84
2018-10-19T04:57:41.289Z,11.81
2018-10-19T04:58:07.447Z,11.9
2018-10-19T04:58:33.578Z,11.84
2018-10-19T04:58:59.746Z,11.84
2018-10-19T04:59:25.886Z,11.86
2018-10-19T04:59:52.022Z,11.81
2018-10-19T05:00:18.165Z,11.87
2018-10-19T05:00:44.344Z,11.9
2018-10-19T05:01:10.472Z,11.91
2018-10-19T05:01:36.636Z,11.87
2018-10-19T05:02:02.764Z,11.91
2018-10-19T05:02:28.950Z,11.83
2018-10-19T05:02:55.142Z,11.84
2018-10-19T05:03:21.261Z,11.88
2018-10-19T05:03:47.398Z,11.9
2018-10-19T05:04:13.630Z,11.94
2018-10-19T05:04:39.857Z,11.91
2018-10-19T05:05:05.908Z,11.83
2018-10-19T05:05:32.212Z,11.84
2018-10-19T05:05:58.288Z,11.83
2018-10-19T05:06:24.389Z,11.81
2018-10-19T05:06:50.532Z,11.84
2018-10-19T05:07:16.670Z,11.8
2018-10-19T05:07:42.862Z,11.87
2018-10-19T05:08:09.024Z,11.87
2018-10-19T05:08:35.175Z,11.86
2018-10-19T05:09:01.282Z,11.81
2018-10-19T05:09:27.416Z,11.81
2018-10-19T05:09:53.550Z,11.81
2018-10-19T05:10:19.704Z,11.87
2018-10-19T05:10:45.835Z,11.84
2018-10-19T05:11:12.061Z,11.86
2018-10-19T05:11:38.096Z,11.87
2018-10-19T05:12:04.251Z,11.87
2018-10-19T05:12:30.451Z,11.77
2018-10-19T05:12:56.688Z,11.75
2018-10-19T05:13:22.797Z,11.77
2018-10-19T05:13:48.953Z,11.8
2018-10-19T05:14:15.208Z,11.9
2018-10-19T05:14:41.293Z,11.84
2018-10-19T05:15:07.419Z,11.75
2018-10-19T05:15:33.546Z,11.87
2018-10-19T05:15:59.685Z,11.81
2018-10-19T05:16:25.862Z,11.84
2018-10-19T05:16:52.062Z,11.83
2018-10-19T05:17:18.220Z,11.78
2018-10-19T05:17:44.338Z,11.78
2018-10-19T05:18:10.515Z,11.77
2018-10-19T05:18:36.650Z,11.73
2018-10-19T05:19:02.809Z,11.81
2018-10-19T05:19:28.956Z,11.78
2018-10-19T05:19:55.094Z,11.84
2018-10-19T05:20:21.251Z,11.8
2018-10-19T05:20:47.383Z,11.8
2018-10-19T05:21:13.514Z,11.77
2018-10-19T05:21:39.654Z,11.75
2018-10-19T05:22:05.804Z,11.77
2018-10-19T05:22:31.969Z,11.75
2018-10-19T05:22:58.141Z,11.77
2018-10-19T05:23:24.259Z,11.81
2018-10-19T05:23:50.393Z,11.77
2018-10-19T05:24:16.527Z,11.84
2018-10-19T05:24:42.704Z,11.72
2018-10-19T05:25:08.811Z,11.73
2018-10-19T05:25:34.970Z,11.68
2018-10-19T05:26:01.157Z,11.75
2018-10-19T05:26:27.292Z,11.69
2018-10-19T05:26:53.421Z,11.7
2018-10-19T05:27:19.572Z,11.65
2018-10-19T05:27:45.727Z,11.63
2018-10-19T05:28:11.875Z,11.72
2018-10-19T05:28:38.019Z,11.68
2018-10-19T05:29:04.185Z,11.63
2018-10-19T05:29:30.300Z,11.73
2018-10-19T05:29:56.437Z,11.75
2018-10-19T05:30:22.565Z,11.69
2018-10-19T05:30:48.699Z,11.7
2018-10-19T05:31:14.829Z,11.54
2018-10-19T05:31:41.004Z,11.59
2018-10-19T05:32:07.268Z,11.5
2018-10-19T05:32:33.331Z,11.62
2018-10-19T05:32:59.502Z,11.54
2018-10-19T05:33:25.600Z,11.57
2018-10-19T05:33:51.748Z,11.51
2018-10-19T05:34:17.876Z,11.51
2018-10-19T05:34:44.023Z,11.55
2018-10-19T05:35:10.306Z,11.54
2018-10-19T05:35:36.332Z,11.44
2018-10-19T05:36:02.510Z,11.48
2018-10-19T05:36:28.643Z,11.59
2018-10-19T05:36:54.774Z,11.52
2018-10-19T05:37:20.925Z,11.55
2018-10-19T05:37:47.082Z,11.47
2018-10-19T05:38:13.259Z,11.51